createdAt,value
2022-08-28T00:04:37.295Z,2.20
2022-08-28T00:09:38.689Z,1.70
2022-08-28T00:14:40.414Z,1.92
2022-08-28T00:19:41.770Z,2.00
2022-08-28T00:24:44.520Z,2.00
2022-08-28T00:29:45.894Z,1.97
2022-08-28T00:34:47.194Z,1.90
2022-08-28T00:39:49.259Z,1.98
2022-08-28T00:44:50.657Z,1.90
2022-08-28T00:49:54.625Z,2.08
2022-08-28T00:55:03.586Z,2.08
2022-08-28T01:00:17.166Z,2.72
2022-08-28T01:10:23.646Z,2.30
2022-08-28T01:15:29.611Z,2.13
2022-08-28T01:20:33.433Z,2.30
2022-08-28T01:25:37.075Z,2.13
2022-08-28T01:30:42.387Z,2.15
2022-08-28T01:35:47.503Z,2.00
2022-08-28T01:40:53.639Z,2.25
2022-08-28T01:46:04.353Z,1.85
2022-08-28T01:51:05.985Z,2.03
2022-08-28T01:56:12.466Z,2.17
2022-08-28T02:01:17.132Z,2.85
2022-08-28T02:06:19.249Z,2.13
2022-08-28T02:11:23.798Z,1.90
2022-08-28T02:16:25.922Z,1.80
2022-08-28T02:21:27.281Z,1.80
2022-08-28T02:26:29.500Z,2.00
2022-08-28T02:31:31.055Z,1.83
2022-08-28T02:36:33.675Z,1.70
2022-08-28T02:41:35.105Z,2.13
2022-08-28T02:46:36.641Z,2.50
2022-08-28T02:51:38.099Z,2.08
2022-08-28T02:56:39.446Z,2.92
2022-08-28T03:01:40.842Z,2.25
2022-08-28T03:06:42.398Z,2.20
2022-08-28T03:11:43.725Z,1.80
2022-08-28T03:16:45.122Z,2.13
2022-08-28T03:21:46.465Z,2.50
2022-08-28T03:26:48.231Z,2.95
2022-08-28T03:31:49.592Z,2.50
2022-08-28T03:36:50.973Z,2.00
2022-08-28T03:41:52.286Z,2.53
2022-08-28T03:46:53.609Z,2.42
2022-08-28T03:51:54.923Z,2.60
2022-08-28T03:56:56.234Z,2.38
2022-08-28T04:01:57.562Z,2.47
2022-08-28T04:06:58.866Z,2.50
2022-08-28T04:12:00.471Z,2.88
2022-08-28T04:17:02.007Z,2.00
2022-08-28T04:22:03.717Z,1.98
2022-08-28T04:27:05.953Z,1.90
2022-08-28T04:32:07.430Z,2.25
2022-08-28T04:37:08.841Z,1.58
2022-08-28T04:42:10.290Z,2.42
2022-08-28T04:47:11.609Z,2.65
2022-08-28T04:52:13.335Z,2.50
2022-08-28T04:57:14.633Z,2.10
2022-08-28T05:02:16.126Z,2.22
2022-08-28T05:07:17.523Z,2.38
2022-08-28T05:12:19.624Z,1.98
2022-08-28T05:17:20.948Z,2.08
2022-08-28T05:22:23.080Z,1.77
2022-08-28T05:27:24.443Z,1.90
2022-08-28T05:32:25.741Z,1.88
2022-08-28T05:37:27.643Z,2.25
2022-08-28T05:42:31.356Z,2.33
2022-08-28T05:47:33.781Z,1.60
2022-08-28T05:52:35.745Z,2.22
2022-08-28T05:57:37.234Z,2.05
2022-08-28T06:02:40.055Z,1.40
2022-08-28T06:07:41.705Z,1.93
2022-08-28T06:12:43.013Z,1.60
2022-08-28T06:17:44.305Z,1.67
2022-08-28T06:22:45.621Z,1.50
2022-08-28T06:27:46.948Z,1.65
2022-08-28T06:32:48.460Z,1.98
2022-08-28T06:37:49.943Z,2.70
2022-08-28T06:42:51.604Z,2.00
2022-08-28T06:47:52.989Z,1.65
2022-08-28T06:52:54.840Z,1.73
2022-08-28T06:57:56.206Z,2.30
2022-08-28T07:02:58.344Z,1.70
2022-08-28T07:08:00.618Z,1.55
2022-08-28T07:13:03.474Z,2.30
2022-08-28T07:18:04.830Z,2.35
2022-08-28T07:23:06.191Z,1.80
2022-08-28T07:28:08.517Z,1.67
2022-08-28T07:33:09.986Z,1.60
2022-08-28T07:38:11.489Z,2.42
2022-08-28T07:43:31.570Z,1.90
2022-08-28T07:48:37.028Z,1.75
2022-08-28T07:53:38.392Z,2.03
2022-08-28T07:58:40.318Z,2.20
2022-08-28T08:03:41.976Z,1.60
2022-08-28T08:08:45.193Z,1.48
2022-08-28T08:13:47.633Z,1.75
2022-08-28T08:18:53.127Z,1.88
2022-08-28T08:23:56.061Z,1.77
2022-08-28T08:28:58.026Z,1.90
2022-08-28T08:34:02.439Z,1.60
2022-08-28T08:39:06.789Z,1.80
2022-08-28T08:44:33.499Z,1.92
2022-08-28T08:49:39.533Z,2.10
2022-08-28T08:54:51.659Z,1.55
2022-08-28T08:59:53.119Z,1.17
2022-08-28T09:05:03.083Z,2.70
2022-08-28T09:10:07.421Z,2.30
2022-08-28T09:15:26.363Z,2.10
2022-08-28T09:20:32.784Z,1.77
2022-08-28T09:25:44.153Z,1.52
2022-08-28T09:30:57.481Z,1.38
2022-08-28T09:36:29.541Z,1.98
2022-08-28T09:41:50.180Z,2.00
2022-08-28T09:46:52.267Z,2.13
2022-08-28T09:51:54.425Z,1.80
2022-08-28T09:56:56.093Z,1.83
2022-08-28T10:02:24.378Z,1.60
2022-08-28T10:07:34.894Z,1.60
2022-08-28T10:12:51.546Z,2.42
2022-08-28T10:18:25.997Z,1.50
2022-08-28T10:23:34.649Z,1.50
2022-08-28T10:28:57.675Z,1.40
2022-08-28T10:34:15.065Z,1.65
2022-08-28T10:39:45.566Z,1.50
2022-08-28T10:45:04.564Z,1.90
2022-08-28T10:50:18.408Z,1.75
2022-08-28T10:55:27.951Z,1.35
2022-08-28T11:00:30.161Z,2.10
2022-08-28T11:05:38.165Z,1.48
2022-08-28T11:10:48.353Z,1.30
2022-08-28T11:15:53.232Z,1.02
2022-08-28T11:21:09.839Z,1.20
2022-08-28T11:26:14.459Z,1.20
2022-08-28T11:31:16.356Z,1.85
2022-08-28T11:36:30.161Z,1.50
2022-08-28T11:41:56.115Z,1.30
2022-08-28T11:47:36.423Z,1.25
2022-08-28T11:53:15.777Z,1.50
2022-08-28T11:58:49.862Z,1.55
2022-08-28T12:04:15.936Z,1.73
2022-08-28T12:09:26.434Z,1.30
2022-08-28T12:14:28.185Z,1.40
2022-08-28T12:19:56.087Z,1.52
2022-08-28T12:25:02.186Z,1.25
2022-08-28T12:30:03.912Z,1.50
2022-08-28T12:35:17.029Z,1.42
2022-08-28T12:40:50.237Z,1.67
2022-08-28T12:46:18.910Z,2.17
2022-08-28T12:51:27.481Z,2.28
2022-08-28T12:56:34.017Z,1.92
2022-08-28T13:01:35.557Z,1.83
2022-08-28T13:06:39.090Z,2.17
2022-08-28T13:11:47.051Z,2.50
2022-08-28T13:16:48.588Z,2.33
2022-08-28T13:22:00.323Z,1.92
2022-08-28T13:27:16.701Z,2.10
2022-08-28T13:32:18.707Z,2.08
2022-08-28T13:37:52.187Z,2.00
2022-08-28T13:43:00.820Z,1.58
2022-08-28T13:48:02.527Z,2.08
2022-08-28T13:53:04.238Z,2.30
2022-08-28T13:58:05.606Z,2.67
2022-08-28T14:03:25.539Z,2.40
2022-08-28T14:08:27.153Z,2.13
2022-08-28T14:18:29.767Z,2.33
2022-08-28T14:23:31.082Z,2.47
2022-08-28T14:28:32.461Z,2.70
2022-08-28T14:33:36.801Z,2.70
2022-08-28T14:38:38.430Z,3.50
2022-08-28T14:43:39.841Z,2.60
2022-08-28T14:48:41.198Z,2.60
2022-08-28T14:53:43.552Z,2.63
2022-08-28T14:58:45.397Z,2.42
2022-08-28T15:03:46.938Z,2.22
2022-08-28T15:08:49.490Z,2.47
2022-08-28T15:13:52.301Z,2.40
2022-08-28T15:18:55.349Z,2.85
2022-08-28T15:23:57.704Z,2.67
2022-08-28T15:34:06.391Z,1.95
2022-08-28T15:39:34.037Z,2.60
2022-08-28T15:44:35.507Z,2.15
2022-08-28T15:49:46.685Z,2.97
2022-08-28T15:54:51.001Z,2.10
2022-08-28T15:59:52.347Z,2.05
2022-08-28T16:04:54.164Z,2.13
2022-08-28T16:09:55.561Z,2.40
2022-08-28T16:14:57.186Z,2.42
2022-08-28T16:19:58.516Z,2.10
2022-08-28T16:24:59.816Z,1.88
2022-08-28T16:30:01.112Z,2.22
2022-08-28T16:35:03.789Z,2.28
2022-08-28T16:40:09.556Z,1.88
2022-08-28T16:45:11.337Z,1.67
2022-08-28T16:50:14.145Z,1.98
2022-08-28T16:55:15.622Z,1.88
2022-08-28T17:00:17.387Z,1.75
2022-08-28T17:05:19.683Z,1.30
2022-08-28T17:10:23.125Z,1.33
2022-08-28T17:15:24.721Z,1.52
2022-08-28T17:20:44.750Z,1.40
2022-08-28T17:25:46.114Z,1.70
2022-08-28T17:30:47.425Z,2.50
2022-08-28T17:35:50.353Z,1.65
2022-08-28T17:40:53.545Z,1.42
2022-08-28T17:45:54.875Z,1.17
2022-08-28T17:56:02.653Z,1.50
2022-08-28T18:01:04.769Z,2.28
2022-08-28T18:06:06.689Z,1.30
2022-08-28T18:11:08.413Z,1.60
2022-08-28T18:16:10.218Z,1.95
2022-08-28T18:21:13.145Z,1.25
2022-08-28T18:26:15.258Z,1.30
2022-08-28T18:31:17.352Z,1.57
2022-08-28T18:36:18.815Z,1.23
2022-08-28T18:41:20.725Z,1.25
2022-08-28T18:46:22.394Z,2.10
2022-08-28T18:51:24.021Z,1.30
2022-08-28T18:56:25.389Z,1.25
2022-08-28T19:01:31.805Z,1.08
2022-08-28T19:06:34.769Z,1.40
2022-08-28T19:11:36.775Z,1.30
2022-08-28T19:16:38.981Z,1.33
2022-08-28T19:21:40.645Z,0.98
2022-08-28T19:26:41.977Z,1.42
2022-08-28T19:31:46.208Z,1.15
2022-08-28T19:36:47.589Z,1.40
2022-08-28T19:41:48.934Z,1.38
2022-08-28T19:46:50.304Z,1.17
2022-08-28T19:51:51.603Z,1.42
2022-08-28T19:56:52.904Z,1.42
2022-08-28T20:01:54.333Z,1.13
2022-08-28T20:06:55.856Z,1.23
2022-08-28T20:11:57.236Z,1.27
2022-08-28T20:16:58.645Z,1.63
2022-08-28T20:21:59.945Z,1.17
2022-08-28T20:27:01.280Z,1.52
2022-08-28T20:32:03.019Z,1.42
2022-08-28T20:37:04.875Z,1.05
2022-08-28T20:42:06.525Z,1.63
2022-08-28T20:47:07.954Z,1.33
2022-08-28T20:52:10.840Z,1.48
2022-08-28T20:57:15.593Z,1.30
2022-08-28T21:02:19.597Z,1.63
2022-08-28T21:07:24.025Z,1.23
2022-08-28T21:12:26.222Z,1.40
2022-08-28T21:17:30.106Z,1.45
2022-08-28T21:22:33.058Z,1.00
2022-08-28T21:27:37.534Z,1.92
2022-08-28T21:32:39.232Z,1.30
2022-08-28T21:37:41.829Z,1.20
2022-08-28T21:42:43.779Z,1.90
2022-08-28T21:47:45.165Z,1.83
2022-08-28T21:52:46.701Z,1.60
2022-08-28T21:57:48.682Z,2.15
2022-08-28T22:02:50.276Z,1.55
2022-08-28T22:07:51.878Z,1.67
2022-08-28T22:12:53.217Z,1.38
2022-08-28T22:17:54.733Z,1.30
2022-08-28T22:23:11.006Z,1.52
2022-08-28T22:28:12.697Z,1.25
2022-08-28T22:33:14.602Z,1.30
2022-08-28T22:38:16.308Z,1.52
2022-08-28T22:43:18.521Z,1.20
2022-08-28T22:48:19.959Z,1.50
2022-08-28T22:53:21.332Z,1.42
2022-08-28T22:58:22.653Z,1.50
2022-08-28T23:03:24.449Z,1.63
2022-08-28T23:08:27.846Z,1.77
2022-08-28T23:13:31.348Z,1.48
2022-08-28T23:18:51.938Z,1.25
2022-08-28T23:23:55.002Z,1.40
2022-08-28T23:28:56.376Z,1.33
2022-08-28T23:33:57.735Z,1.23
2022-08-28T23:39:00.096Z,1.13
2022-08-28T23:44:05.286Z,1.65
2022-08-28T23:49:11.999Z,1.30
2022-08-28T23:54:14.081Z,1.23
2022-08-28T23:59:16.781Z,1.40
